| |
Missouri Department of Transportation

Social Media Facebook Twitter Flickr Instagram YouTube RSS

Current AWOS Information

AWOS Home - General Info for all Airports
Current AWOS for all Airports - Current METAR for all Airports
Glossary - Disclaimer - Other Links

Recent AWOS History
10/05/15     11:21 AM CDT      16:21 GMT
Air Temperature 64°F (18°C ) 1st Cloud Layer Scattered at 1,000 feet
Dew Point 52°F (11°C) 2nd Cloud Layer Overcast at 3,100 feet
Barometric Pressure 30.18 in Hg. 3rd Cloud Layer  
Wind Speed 6 mph (5 knots) Density Altitude  
Peak Wind Gusts   Variable Wind Directions  
Wind Direction Quadrant(030°) Variable Visibility  
Visibility 10 statute miles  

Thunderstorm and Precipitation Identification: 
Thunderstorm Remarks: 

Current METAR Record: METAR KHAE 051625Z AUTO 02004KT 10SM SCT010 OVC031 18/11 A3018 RMK AO2




About Us
How Do I...
Contact Us
Missouri Department of Transportation
Central Office
105 W. Capitol Avenue
Jefferson City, MO 65102
1-888-ASK-MODOT (275-6636)
1-866-831-6277 (Motor Carrier Services)
Driver's License Offices
| | |
Missouri State Government
© 2013 Missouri Department of Transportation. All Rights Reserved.   Privacy Policy.
RSS FeedYoutubeBlogFlickrTwitter Facebook